KSPW/SPW METAR and TAF weather

Enter ICAO airport designator
Station Type Date Time Source
KSPW METAR 2024/05/28 21:53 UTC NOAA

KSPW 282153Z AUTO 34014G21KT 10SM SCT060 SCT075 22/06 A3013 RMK AO2 SLP202 T02170061


Station Type Date Time Source
KSPW Decoded METAR 2024/05/28 21:53 UTC NOAA

SPENCER MUNICIPAL AIRPORT, IA, United States (KSPW) 43-10N 95-13W 403M
May 28, 2024 - 05:53 PM EDT / 2024.05.28 2153 UTC
Wind: from the NNW (340 degrees) at 16 MPH (14 KT) gusting to 24 MPH (21 KT):0
Visibility: 10 mile(s):0
Sky conditions: partly cloudy
Temperature: 71.1 F (21.7 C)
Dew Point: 43.0 F (6.1 C)
Relative Humidity: 36%
Pressure (altimeter): 30.13 in. Hg (1020 hPa)
ob: KSPW 282153Z AUTO 34014G21KT 10SM SCT060 SCT075 22/06 A3013 RMK AO2 SLP202 T02170061
cycle: 22

Station Type Date Time Source
KSPW TAF UTC NOAA

Error!

Example: see airport list